Palmdale, California
Current Conditions -  °F | °C
As of 5:53 PM on Saturday 20 Dec 2014 (Local Time) from KPMD Reporting Station
Clear Clear  
Wind Chill: 53°   Ceiling: Unl
Heat Index: 53°   Visibility: 10mi
Dew Point: 45°   Wind: 21mph
Humidity: 74%   Direction: 290°WNW
Pressure: 30.14"   Gusts: 29mph
Location:  34.58°N, 118.11°W
Report Text: KPMD 210153Z AUTO 29018G25KT 10SM CLR 12/07 A3014 RMK AO2 SLP204 T01170072
Loading
Personal Weather Stations






























Interactive Weather Map New forecast layout! Learn more

10-Day Weather Forecast

Advertisements
Track Severe Weather on mobile